GLA weather

Glasgow International Airport
Glasgow, Scotland, United Kingdom

Public forecast

Using degrees Celsius for public forecast. Weather courtesy of forecast.io.

Current aviation weather report (METAR) for Glasgow International Airport

Retrieved 2019/10/19 06:20 UTC (5 minutes ago):

EGPF 190620Z AUTO 32001KT 9999 BKN038 09/08 Q0998

Aviation forecast (TAF) for Glasgow International Airport

Retrieved 2019/10/19 06:00 UTC (25 minutes ago):

TAF EGPF 190456Z 1906/2006 01007KT 9999 SCT030 TEMPO 1906/1910 4000 RA BKN013 PROB30 TEMPO 1906/1912 02015G25KT PROB30 TEMPO 1906/1907 BKN008